Time;durP1;ratioP1;P1;durP2;ratioP2;P2;SDS_P1;SDS_P2;PMS_P1;PMS_P2;Temp;Humidity;BMP_temperature;BMP_pressure;BME280_temperature;BME280_humidity;BME280_pressure;Samples;Min_cycle;Max_cycle;Signal;HPM_P1;HPM_P2
2023/05/14 00:55:22;;;;;;;;;;;10.30;99.90;;;;;;2326064;23;19927;-75
2023/05/14 00:58:13;;;;;;;;;;;10.40;99.90;;;;;;4973706;28;20012;-75
2023/05/14 01:00:44;;;;;;;;;;;10.20;99.90;;;;;;4941078;28;19925;-75
2023/05/14 01:03:10;;;;;;;;;;;10.20;99.90;;;;;;4973663;28;19928;-75
2023/05/14 01:09:13;;;;;;;;;;;10.20;99.90;;;;;;4933146;29;20025;-75
2023/05/14 02:07:14;;;;;;;;;;;8.80;99.90;;;;;;4969615;28;19969;-75
2023/05/14 02:09:51;;;;;;;;;;;10.30;99.90;;;;;;4973079;28;19926;-75
2023/05/14 02:12:27;;;;;;;;;;;10.30;99.90;;;;;;4959530;28;19979;-75
2023/05/14 02:15:04;;;;;;;;;;;10.30;99.90;;;;;;4974256;28;20057;-75
2023/05/14 02:17:30;;;;;;;;;;;10.30;99.90;;;;;;4959750;28;19926;-75
2023/05/14 02:19:56;;;;;;;;;;;10.50;99.90;;;;;;4958710;28;20094;-75
2023/05/14 02:22:30;;;;;;;;;;;11.70;99.90;;;;;;4958455;28;19950;-75
2023/05/14 02:24:56;;;;;;;;;;;10.20;99.90;;;;;;4958722;28;19926;-75
2023/05/14 02:34:12;;;;;;;;;;;10.50;99.90;;;;;;4917212;28;19921;-75
2023/05/14 02:36:41;;;;;;;;;;;10.30;99.90;;;;;;4916166;29;19950;-75
2023/05/14 02:39:07;;;;;;;;;;;10.40;99.90;;;;;;4901181;29;20295;-74
2023/05/14 02:52:07;;;;;;;;;;;10.10;99.90;;;;;;4914538;29;19930;-74
2023/05/14 02:54:32;;;;;;;;;;;10.30;99.90;;;;;;4933344;28;19981;-75
2023/05/14 02:57:01;;;;;;;;;;;11.90;99.90;;;;;;4958844;28;19925;-75
2023/05/14 02:59:40;;;;;;;;;;;10.30;99.90;;;;;;4976410;28;19926;-75
2023/05/14 03:02:10;;;;;;;;;;;10.40;99.90;;;;;;4958377;28;20269;-75
2023/05/14 03:04:48;;;;;;;;;;;10.40;99.90;;;;;;4975239;28;19933;-75
2023/05/14 03:07:15;;;;;;;;;;;10.40;99.90;;;;;;4955314;28;19965;-75
2023/05/14 03:09:48;;;;;;;;;;;11.80;99.90;;;;;;4959123;28;19926;-75
2023/05/14 03:12:18;;;;;;;;;;;10.50;99.90;;;;;;4975021;28;20382;-75
2023/05/14 03:14:51;;;;;;;;;;;10.50;99.90;;;;;;4958490;28;19926;-75
2023/05/14 03:17:20;;;;;;;;;;;11.90;99.90;;;;;;4975347;28;20291;-75
2023/05/14 03:23:11;;;;;;;;;;;11.90;99.90;;;;;;4975578;28;19973;-75
2023/05/14 03:25:52;;;;;;;;;;;10.50;99.90;;;;;;4938263;28;19981;-75
2023/05/14 03:28:31;;;;;;;;;;;10.60;99.90;;;;;;4943325;28;20398;-75
2023/05/14 03:31:00;;;;;;;;;;;10.50;99.90;;;;;;4974622;28;20410;-75
2023/05/14 03:33:26;;;;;;;;;;;10.50;99.90;;;;;;4974773;28;20366;-75
2023/05/14 03:35:55;;;;;;;;;;;10.50;99.90;;;;;;4974997;28;20053;-75
2023/05/14 03:38:23;;;;;;;;;;;10.50;99.90;;;;;;4958592;28;19977;-75
2023/05/14 03:40:58;;;;;;;;;;;10.50;99.90;;;;;;4973484;28;19933;-75
2023/05/14 03:43:27;;;;;;;;;;;10.50;99.90;;;;;;4975101;28;19930;-75
2023/05/14 03:45:58;;;;;;;;;;;10.50;99.90;;;;;;4975070;28;19964;-75
2023/05/14 03:48:37;;;;;;;;;;;10.50;99.90;;;;;;4972193;28;19981;-75
2023/05/14 03:51:06;;;;;;;;;;;10.50;99.90;;;;;;4973735;28;19948;-75
2023/05/14 03:53:32;;;;;;;;;;;10.50;99.90;;;;;;4974268;28;20130;-75
2023/05/14 03:55:58;;;;;;;;;;;10.00;99.90;;;;;;4957665;28;20050;-75
2023/05/14 03:58:23;;;;;;;;;;;10.50;99.90;;;;;;4958001;28;19981;-75
2023/05/14 04:00:59;;;;;;;;;;;11.20;99.90;;;;;;5058996;23;20386;-75
2023/05/14 04:03:25;;;;;;;;;;;10.50;99.90;;;;;;4954371;28;19926;-75
2023/05/14 04:05:54;;;;;;;;;;;10.60;99.90;;;;;;4954002;28;19949;-75
2023/05/14 04:08:19;;;;;;;;;;;10.60;99.90;;;;;;4954843;28;20386;-75
2023/05/14 04:10:45;;;;;;;;;;;11.90;99.90;;;;;;4954120;29;19935;-75
2023/05/14 04:13:13;;;;;;;;;;;10.60;99.90;;;;;;4954543;29;19926;-75
2023/05/14 04:15:41;;;;;;;;;;;10.70;99.90;;;;;;4953744;29;19926;-75
2023/05/14 04:18:07;;;;;;;;;;;10.70;99.90;;;;;;4954756;28;20373;-75
2023/05/14 04:20:34;;;;;;;;;;;10.70;99.90;;;;;;4953634;29;19934;-75
2023/05/14 04:23:00;;;;;;;;;;;10.70;99.90;;;;;;4954033;28;19927;-75
2023/05/14 04:25:27;;;;;;;;;;;10.70;99.90;;;;;;4954953;29;19926;-75
2023/05/14 04:27:58;;;;;;;;;;;10.80;99.90;;;;;;4954157;29;20378;-75
2023/05/14 04:30:30;;;;;;;;;;;10.80;99.90;;;;;;4954068;28;20438;-75
2023/05/14 04:32:58;;;;;;;;;;;10.80;99.90;;;;;;4953566;29;19978;-75
2023/05/14 04:35:24;;;;;;;;;;;12.00;99.90;;;;;;4954756;28;20310;-75
2023/05/14 04:37:51;;;;;;;;;;;10.80;99.90;;;;;;4954276;29;19927;-75
2023/05/14 04:40:16;;;;;;;;;;;12.30;99.90;;;;;;4955348;28;19927;-75
2023/05/14 04:45:09;;;;;;;;;;;10.90;99.90;;;;;;4942941;23;20306;-75
2023/05/14 04:47:38;;;;;;;;;;;11.00;99.90;;;;;;4936124;29;19981;-75
2023/05/14 05:04:06;;;;;;;;;;;12.20;99.90;;;;;;4956280;28;19933;-75
2023/05/14 05:06:35;;;;;;;;;;;11.10;99.90;;;;;;4957046;28;19954;-75
2023/05/14 05:09:03;;;;;;;;;;;11.20;99.90;;;;;;4956793;28;19930;-76
2023/05/14 05:11:40;;;;;;;;;;;12.20;99.90;;;;;;4973840;28;19926;-76
2023/05/14 05:14:08;;;;;;;;;;;11.20;99.90;;;;;;4974898;28;20448;-75
2023/05/14 05:16:34;;;;;;;;;;;11.40;99.90;;;;;;4978311;28;19930;-75
2023/05/14 05:19:04;;;;;;;;;;;11.30;99.90;;;;;;4977340;28;20325;-75
2023/05/14 05:21:35;;;;;;;;;;;11.30;99.90;;;;;;4978341;28;19926;-75
2023/05/14 05:24:05;;;;;;;;;;;11.40;99.90;;;;;;4957007;29;19970;-76
2023/05/14 05:26:50;;;;;;;;;;;11.40;99.90;;;;;;4974634;28;20290;-76
2023/05/14 05:29:16;;;;;;;;;;;11.50;99.90;;;;;;4957526;29;20013;-75
2023/05/14 05:31:43;;;;;;;;;;;12.40;99.90;;;;;;4957297;28;20046;-75
2023/05/14 05:34:12;;;;;;;;;;;11.60;99.90;;;;;;4977703;28;19926;-75
2023/05/14 05:36:38;;;;;;;;;;;11.70;99.90;;;;;;4978067;28;19926;-75
2023/05/14 05:39:03;;;;;;;;;;;13.30;99.90;;;;;;4959924;28;19922;-75
2023/05/14 05:41:31;;;;;;;;;;;12.40;99.90;;;;;;4977588;28;20416;-76
2023/05/14 05:44:06;;;;;;;;;;;13.30;99.90;;;;;;4958730;28;19934;-76
2023/05/14 05:46:32;;;;;;;;;;;12.10;99.90;;;;;;4976407;28;20340;-75
2023/05/14 05:48:58;;;;;;;;;;;12.20;99.90;;;;;;4977176;28;20341;-75
2023/05/14 05:51:27;;;;;;;;;;;12.90;99.90;;;;;;4957127;29;20362;-76
2023/05/14 05:54:14;;;;;;;;;;;13.50;99.90;;;;;;4957618;28;20021;-75
2023/05/14 05:56:40;;;;;;;;;;;12.50;99.90;;;;;;4957006;28;19934;-76
2023/05/14 05:59:05;;;;;;;;;;;12.60;99.90;;;;;;4956788;29;20030;-75
2023/05/14 06:01:31;;;;;;;;;;;13.90;99.90;;;;;;4956125;29;19934;-75
2023/05/14 06:04:05;;;;;;;;;;;12.80;99.90;;;;;;4975762;28;19926;-75
2023/05/14 06:06:33;;;;;;;;;;;13.40;99.90;;;;;;4977325;28;20037;-76
2023/05/14 06:09:00;;;;;;;;;;;13.00;99.90;;;;;;4958608;28;20422;-76
2023/05/14 06:11:26;;;;;;;;;;;13.10;99.90;;;;;;4956501;29;19977;-75
2023/05/14 06:13:51;;;;;;;;;;;13.20;99.90;;;;;;4957649;28;19922;-75
2023/05/14 06:16:17;;;;;;;;;;;13.60;99.90;;;;;;4976505;28;20259;-75
2023/05/14 06:19:04;;;;;;;;;;;14.00;99.90;;;;;;4977121;28;19926;-75
2023/05/14 06:21:29;;;;;;;;;;;13.30;99.90;;;;;;4976093;28;19969;-75
2023/05/14 06:23:54;;;;;;;;;;;13.30;99.90;;;;;;4976423;28;20336;-75
2023/05/14 06:26:32;;;;;;;;;;;13.40;99.90;;;;;;4973611;28;20405;-75
2023/05/14 06:28:58;;;;;;;;;;;12.30;99.90;;;;;;4957887;28;19926;-75
2023/05/14 06:31:26;;;;;;;;;;;13.40;99.90;;;;;;4976916;28;19933;-75
2023/05/14 06:40:52;;;;;;;;;;;12.90;99.90;;;;;;4920647;29;19962;-74
2023/05/14 06:54:13;;;;;;;;;;;14.00;99.90;;;;;;4928733;29;19962;-75
2023/05/14 06:57:03;;;;;;;;;;;14.10;99.90;;;;;;4935318;29;19933;-74
2023/05/14 06:59:32;;;;;;;;;;;14.10;99.90;;;;;;4935326;29;20439;-75
2023/05/14 07:02:06;;;;;;;;;;;14.30;99.90;;;;;;4935550;29;19978;-75
2023/05/14 07:04:31;;;;;;;;;;;14.30;99.90;;;;;;4934870;29;19927;-78
2023/05/14 07:07:02;;;;;;;;;;;14.40;99.90;;;;;;4935155;29;19934;-76
2023/05/14 07:09:43;;;;;;;;;;;13.90;99.90;;;;;;4935489;29;19927;-76
2023/05/14 07:12:08;;;;;;;;;;;14.60;99.90;;;;;;4964907;28;19926;-75
2023/05/14 07:14:34;;;;;;;;;;;16.10;99.90;;;;;;4937192;29;19933;-75
2023/05/14 07:17:00;;;;;;;;;;;14.80;99.90;;;;;;4939454;29;20010;-72
2023/05/14 07:19:27;;;;;;;;;;;14.80;99.90;;;;;;4955812;28;20298;-78
2023/05/14 07:21:53;;;;;;;;;;;14.90;99.90;;;;;;4956709;29;20350;-77
2023/05/14 07:24:18;;;;;;;;;;;14.90;99.90;;;;;;4956359;29;20025;-75
2023/05/14 07:26:44;;;;;;;;;;;14.90;99.90;;;;;;4956300;29;19934;-74
2023/05/14 07:29:10;;;;;;;;;;;14.90;99.90;;;;;;4955892;28;20021;-74
2023/05/14 07:31:36;;;;;;;;;;;16.10;99.90;;;;;;4955813;28;20029;-76
2023/05/14 07:34:01;;;;;;;;;;;16.50;99.90;;;;;;4939107;29;19934;-74
2023/05/14 07:36:27;;;;;;;;;;;16.20;99.90;;;;;;4896718;29;19993;-73
2023/05/14 07:38:52;;;;;;;;;;;15.10;99.90;;;;;;4957595;28;20016;-83
2023/05/14 07:41:18;;;;;;;;;;;15.20;99.90;;;;;;4975757;28;20346;-80
2023/05/14 07:43:43;;;;;;;;;;;15.40;99.90;;;;;;4975280;28;19926;-77
2023/05/14 07:46:10;;;;;;;;;;;15.60;99.90;;;;;;4973994;28;19926;-79
2023/05/14 07:48:41;;;;;;;;;;;15.70;99.90;;;;;;4975602;28;19926;-74
2023/05/14 07:51:06;;;;;;;;;;;16.00;99.90;;;;;;4974552;28;20389;-74
2023/05/14 07:53:32;;;;;;;;;;;16.20;99.90;;;;;;4973518;28;19926;-74
2023/05/14 07:56:02;;;;;;;;;;;16.30;99.90;;;;;;4957687;28;19926;-74
2023/05/14 08:09:07;;;;;;;;;;;16.20;99.90;;;;;;6105766;22;1985020;-73
2023/05/14 08:11:36;;;;;;;;;;;16.60;99.90;;;;;;6138030;23;19971;-73
2023/05/14 08:14:02;;;;;;;;;;;16.80;99.90;;;;;;6163324;23;20387;-72
2023/05/14 08:16:28;;;;;;;;;;;16.70;99.90;;;;;;6164455;23;20329;-72
2023/05/14 08:18:53;;;;;;;;;;;16.90;99.90;;;;;;6137757;23;19928;-73
2023/05/14 08:21:19;;;;;;;;;;;17.00;99.90;;;;;;6136435;23;20268;-73
2023/05/14 08:23:45;;;;;;;;;;;17.00;99.90;;;;;;6164315;23;19921;-73
2023/05/14 08:26:10;;;;;;;;;;;17.30;99.90;;;;;;6163982;23;20238;-73
2023/05/14 08:28:36;;;;;;;;;;;17.80;99.90;;;;;;6136476;23;19932;-73
2023/05/14 08:31:04;;;;;;;;;;;18.20;99.90;;;;;;6137522;23;19921;-73
2023/05/14 08:33:30;;;;;;;;;;;18.40;99.90;;;;;;6138464;23;20301;-78
2023/05/14 08:35:57;;;;;;;;;;;18.70;99.90;;;;;;6162613;23;19920;-74
2023/05/14 08:38:22;;;;;;;;;;;19.10;99.90;;;;;;6159557;23;19920;-74
2023/05/14 08:40:51;;;;;;;;;;;19.60;99.90;;;;;;6162737;23;19932;-74
2023/05/14 08:43:18;;;;;;;;;;;19.90;99.90;;;;;;6161865;23;20042;-74
2023/05/14 08:45:45;;;;;;;;;;;19.90;99.90;;;;;;6136596;23;19927;-73
2023/05/14 08:48:13;;;;;;;;;;;20.20;99.90;;;;;;6163245;23;19928;-75
2023/05/14 08:50:39;;;;;;;;;;;20.40;99.90;;;;;;6162455;23;19927;-74
2023/05/14 08:53:05;;;;;;;;;;;20.50;99.90;;;;;;6162896;23;19995;-73
2023/05/14 08:55:32;;;;;;;;;;;20.90;99.90;;;;;;6136906;23;19995;-73
2023/05/14 09:01:01;;;;;;;;;;;21.40;99.90;;;;;;6193891;23;19971;-72
2023/05/14 09:03:33;;;;;;;;;;;21.80;99.90;;;;;;6191944;23;19970;-72
2023/05/14 09:05:59;;;;;;;;;;;22.00;99.90;;;;;;6196013;23;19968;-73
2023/05/14 09:08:25;;;;;;;;;;;22.20;99.90;;;;;;6193804;23;19991;-73
2023/05/14 09:10:51;;;;;;;;;;;22.20;99.90;;;;;;6184209;23;19963;-72
2023/05/14 09:13:16;;;;;;;;;;;22.30;99.90;;;;;;6186546;23;20249;-73
2023/05/14 09:15:42;;;;;;;;;;;22.20;99.90;;;;;;6186232;23;19920;-72
2023/05/14 09:18:08;;;;;;;;;;;22.00;99.90;;;;;;6185272;23;19924;-73
2023/05/14 09:20:34;;;;;;;;;;;22.50;99.90;;;;;;6185244;23;20229;-72
2023/05/14 09:23:00;;;;;;;;;;;22.90;99.90;;;;;;6184240;23;20000;-73
2023/05/14 09:25:27;;;;;;;;;;;23.20;99.20;;;;;;6185876;23;19920;-72
2023/05/14 09:28:06;;;;;;;;;;;23.30;99.90;;;;;;6185755;23;19920;-72
2023/05/14 09:30:33;;;;;;;;;;;23.70;99.90;;;;;;6158618;23;19924;-71
2023/05/14 09:32:59;;;;;;;;;;;23.90;99.20;;;;;;6157907;23;19920;-69
2023/05/14 09:35:25;;;;;;;;;;;23.90;98.50;;;;;;6186205;23;19920;-70
2023/05/14 09:37:51;;;;;;;;;;;24.10;98.30;;;;;;6159017;23;19987;-69
2023/05/14 09:40:18;;;;;;;;;;;24.00;97.70;;;;;;6185657;23;19920;-71
2023/05/14 09:42:43;;;;;;;;;;;24.00;98.90;;;;;;6185903;23;19931;-71
2023/05/14 09:45:09;;;;;;;;;;;24.20;98.70;;;;;;6158185;23;19955;-71
2023/05/14 09:47:38;;;;;;;;;;;24.10;97.50;;;;;;6159398;23;19920;-72
2023/05/14 09:50:04;;;;;;;;;;;24.30;98.20;;;;;;6185839;23;19921;-71
2023/05/14 09:52:30;;;;;;;;;;;24.20;97.90;;;;;;6158521;23;19920;-72
2023/05/14 09:54:55;;;;;;;;;;;24.00;97.30;;;;;;6185660;23;19920;-71
2023/05/14 09:57:21;;;;;;;;;;;23.70;97.30;;;;;;6185338;23;19931;-73
2023/05/14 09:59:49;;;;;;;;;;;23.50;97.40;;;;;;6158203;23;19920;-72
2023/05/14 10:02:22;;;;;;;;;;;23.40;97.90;;;;;;6159180;23;19921;-73
2023/05/14 10:04:48;;;;;;;;;;;23.60;98.70;;;;;;6185603;23;19936;-74
2023/05/14 10:07:16;;;;;;;;;;;23.70;98.30;;;;;;6184477;23;19920;-73
2023/05/14 10:09:42;;;;;;;;;;;23.90;97.70;;;;;;6186623;23;19948;-73
2023/05/14 10:12:08;;;;;;;;;;;24.00;97.90;;;;;;6185544;23;19927;-77
2023/05/14 10:14:45;;;;;;;;;;;24.00;96.60;;;;;;6185691;23;19920;-72
2023/05/14 10:17:17;;;;;;;;;;;24.20;97.10;;;;;;6186263;23;19999;-75
2023/05/14 10:19:46;;;;;;;;;;;24.50;98.30;;;;;;6186850;23;19920;-75
2023/05/14 10:22:14;;;;;;;;;;;24.50;97.70;;;;;;6158131;23;19916;-76
2023/05/14 10:24:40;;;;;;;;;;;24.60;96.30;;;;;;6160123;23;19920;-75
2023/05/14 10:27:05;;;;;;;;;;;24.80;97.00;;;;;;6185905;23;19926;-75
2023/05/14 10:29:35;;;;;;;;;;;24.80;96.90;;;;;;6187066;23;19944;-72
2023/05/14 10:32:07;;;;;;;;;;;24.80;97.10;;;;;;6187512;23;19983;-74
2023/05/14 10:34:39;;;;;;;;;;;24.90;97.30;;;;;;6162288;23;19928;-74
2023/05/14 10:37:15;;;;;;;;;;;24.90;96.90;;;;;;6160571;23;19920;-73
2023/05/14 10:39:41;;;;;;;;;;;25.00;97.90;;;;;;6159065;23;19943;-75
2023/05/14 10:42:28;;;;;;;;;;;24.90;97.60;;;;;;6157824;23;19920;-75
2023/05/14 10:44:55;;;;;;;;;;;24.70;96.30;;;;;;6183372;23;19921;-75
2023/05/14 10:47:21;;;;;;;;;;;24.70;98.10;;;;;;6179970;23;19921;-75
2023/05/14 10:49:51;;;;;;;;;;;24.80;96.50;;;;;;6180754;23;20288;-75
2023/05/14 10:52:20;;;;;;;;;;;24.50;97.50;;;;;;6181427;23;19963;-75
2023/05/14 10:54:53;;;;;;;;;;;24.70;97.60;;;;;;6154805;23;19999;-75
2023/05/14 10:57:20;;;;;;;;;;;24.70;97.70;;;;;;6154037;23;20006;-74
2023/05/14 10:59:46;;;;;;;;;;;24.90;95.60;;;;;;6180848;23;20245;-74
2023/05/14 11:02:19;;;;;;;;;;;25.10;96.80;;;;;;6180738;23;20504;-75
2023/05/14 11:05:12;;;;;;;;;;;25.00;96.20;;;;;;6156978;23;19970;-75
2023/05/14 11:07:39;;;;;;;;;;;25.30;96.30;;;;;;6181477;23;19955;-74
2023/05/14 11:10:05;;;;;;;;;;;25.20;96.50;;;;;;6156641;23;19920;-75
2023/05/14 11:12:35;;;;;;;;;;;25.00;96.00;;;;;;6158262;23;20329;-75
2023/05/14 11:15:02;;;;;;;;;;;24.90;95.90;;;;;;6184749;23;19970;-75
2023/05/14 11:20:05;;;;;;;;;;;24.50;96.20;;;;;;6197282;23;19924;-74
2023/05/14 11:22:31;;;;;;;;;;;24.70;97.00;;;;;;6158516;23;20214;-75
2023/05/14 11:24:56;;;;;;;;;;;24.50;95.90;;;;;;6157929;23;19974;-75
2023/05/14 11:27:25;;;;;;;;;;;24.50;96.90;;;;;;6159402;23;19970;-75
2023/05/14 11:29:51;;;;;;;;;;;24.50;96.30;;;;;;6185154;23;19920;-75
2023/05/14 11:32:20;;;;;;;;;;;24.30;96.90;;;;;;6155002;23;20042;-75
2023/05/14 11:34:46;;;;;;;;;;;24.30;97.20;;;;;;6156657;23;20024;-75
2023/05/14 11:37:12;;;;;;;;;;;24.20;96.80;;;;;;6158437;23;19947;-75
2023/05/14 11:39:38;;;;;;;;;;;24.30;97.70;;;;;;6188644;23;19921;-74
2023/05/14 11:42:08;;;;;;;;;;;24.10;97.40;;;;;;6190985;23;19920;-74
2023/05/14 11:44:34;;;;;;;;;;;24.40;98.30;;;;;;6187563;23;19929;-74
2023/05/14 11:47:03;;;;;;;;;;;24.50;97.80;;;;;;6155563;23;19924;-74
2023/05/14 11:49:29;;;;;;;;;;;24.90;97.10;;;;;;6185570;23;19920;-74
2023/05/14 11:51:58;;;;;;;;;;;24.90;96.30;;;;;;6184493;23;19920;-74
2023/05/14 11:54:27;;;;;;;;;;;24.70;97.70;;;;;;6158703;23;19983;-73
2023/05/14 11:56:57;;;;;;;;;;;24.70;97.10;;;;;;6185336;23;19920;-75
2023/05/14 11:59:30;;;;;;;;;;;24.50;95.90;;;;;;6184694;23;19920;-75
2023/05/14 12:01:56;;;;;;;;;;;24.30;96.80;;;;;;6158574;23;20334;-75
2023/05/14 12:04:22;;;;;;;;;;;24.30;96.60;;;;;;6185504;23;20047;-75
2023/05/14 12:06:48;;;;;;;;;;;24.00;96.50;;;;;;6184661;23;19952;-74
2023/05/14 12:09:17;;;;;;;;;;;23.80;97.50;;;;;;6185515;23;19920;-75
2023/05/14 12:11:45;;;;;;;;;;;23.80;97.80;;;;;;6186398;23;19920;-75
2023/05/14 12:14:16;;;;;;;;;;;23.80;97.70;;;;;;6185960;23;19928;-75
2023/05/14 12:16:49;;;;;;;;;;;23.90;97.50;;;;;;6159509;23;19920;-75
2023/05/14 12:19:19;;;;;;;;;;;23.90;97.20;;;;;;6159350;23;19999;-75
2023/05/14 12:21:46;;;;;;;;;;;23.80;95.60;;;;;;6158443;23;19927;-75
2023/05/14 12:24:12;;;;;;;;;;;23.80;96.60;;;;;;6158724;23;19920;-74
2023/05/14 12:26:39;;;;;;;;;;;23.90;97.00;;;;;;6158863;23;19963;-75
2023/05/14 12:29:08;;;;;;;;;;;23.90;96.50;;;;;;6184304;23;19920;-75
2023/05/14 12:31:50;;;;;;;;;;;24.00;97.00;;;;;;6152321;23;19920;-75
2023/05/14 12:34:16;;;;;;;;;;;24.10;97.00;;;;;;6154998;23;19920;-75
2023/05/14 12:36:42;;;;;;;;;;;24.20;96.90;;;;;;6156262;23;20325;-74
2023/05/14 12:39:11;;;;;;;;;;;24.10;96.70;;;;;;6182218;23;20302;-75
2023/05/14 12:41:36;;;;;;;;;;;24.30;97.10;;;;;;6157657;23;20252;-74
2023/05/14 12:44:05;;;;;;;;;;;24.30;97.80;;;;;;6159081;23;19926;-74
2023/05/14 12:46:31;;;;;;;;;;;24.20;97.20;;;;;;6161088;23;19955;-74
2023/05/14 12:48:56;;;;;;;;;;;24.20;97.30;;;;;;6185900;23;20245;-74
2023/05/14 12:51:22;;;;;;;;;;;24.10;97.40;;;;;;6187299;23;19920;-74
2023/05/14 12:53:48;;;;;;;;;;;24.10;97.90;;;;;;6185076;23;19971;-75
2023/05/14 12:56:16;;;;;;;;;;;24.20;98.80;;;;;;6183895;23;19920;-74
2023/05/14 12:58:42;;;;;;;;;;;24.20;97.80;;;;;;6158536;23;20455;-74
2023/05/14 13:01:07;;;;;;;;;;;24.20;98.10;;;;;;6157927;23;20007;-75
2023/05/14 13:03:33;;;;;;;;;;;24.10;97.30;;;;;;6184603;23;19920;-75
2023/05/14 13:05:59;;;;;;;;;;;24.20;98.70;;;;;;6166434;23;19952;-75
2023/05/14 13:08:25;;;;;;;;;;;24.20;98.40;;;;;;6188690;23;19920;-75
2023/05/14 13:10:50;;;;;;;;;;;24.20;97.80;;;;;;6185894;23;19921;-74
2023/05/14 13:13:16;;;;;;;;;;;24.20;99.90;;;;;;6189109;23;19920;-74
2023/05/14 13:15:42;;;;;;;;;;;24.20;99.00;;;;;;6187698;23;19924;-74
2023/05/14 13:18:07;;;;;;;;;;;24.20;98.80;;;;;;6156910;23;19928;-75
2023/05/14 13:20:33;;;;;;;;;;;24.10;98.80;;;;;;6158976;23;19995;-74
2023/05/14 13:22:59;;;;;;;;;;;23.90;98.40;;;;;;6158481;23;19947;-74
2023/05/14 13:25:24;;;;;;;;;;;23.60;98.10;;;;;;6132476;23;19963;-74
2023/05/14 13:27:50;;;;;;;;;;;23.40;98.70;;;;;;6185663;23;19996;-74
2023/05/14 13:30:16;;;;;;;;;;;23.30;99.40;;;;;;6185244;23;19966;-74
2023/05/14 13:32:42;;;;;;;;;;;23.10;98.70;;;;;;6157832;23;19920;-74
2023/05/14 13:35:10;;;;;;;;;;;23.20;99.70;;;;;;6183476;23;19995;-75
2023/05/14 13:37:36;;;;;;;;;;;22.90;99.00;;;;;;6188563;23;19920;-74
2023/05/14 13:40:07;;;;;;;;;;;23.10;99.20;;;;;;6161584;23;19983;-74
2023/05/14 13:42:32;;;;;;;;;;;23.00;99.40;;;;;;6183889;23;19944;-75
2023/05/14 13:45:01;;;;;;;;;;;22.90;99.30;;;;;;6182725;23;20249;-74
2023/05/14 13:47:27;;;;;;;;;;;22.90;99.30;;;;;;6157506;23;20640;-74
2023/05/14 13:49:53;;;;;;;;;;;22.70;99.50;;;;;;6183613;23;19971;-74
2023/05/14 13:52:18;;;;;;;;;;;22.50;99.90;;;;;;6183069;23;19920;-74
2023/05/14 13:54:44;;;;;;;;;;;22.50;99.90;;;;;;6184401;23;19920;-75
2023/05/14 13:57:10;;;;;;;;;;;22.50;99.90;;;;;;6183712;23;20385;-75
2023/05/14 13:59:35;;;;;;;;;;;22.60;99.90;;;;;;6183872;23;19927;-74
2023/05/14 14:02:01;;;;;;;;;;;22.30;99.90;;;;;;6158617;23;19917;-74
2023/05/14 14:04:29;;;;;;;;;;;22.30;99.90;;;;;;6157049;23;20446;-74
2023/05/14 14:06:55;;;;;;;;;;;22.10;99.90;;;;;;6183260;23;19916;-74
2023/05/14 14:09:21;;;;;;;;;;;22.20;99.90;;;;;;6160028;23;20343;-74
2023/05/14 14:11:46;;;;;;;;;;;22.20;99.90;;;;;;6188631;23;19960;-74
2023/05/14 14:14:12;;;;;;;;;;;22.00;99.90;;;;;;6159824;23;19916;-74
2023/05/14 14:16:37;;;;;;;;;;;22.10;99.90;;;;;;6187286;23;19924;-73
2023/05/14 14:19:03;;;;;;;;;;;21.70;99.90;;;;;;6187077;23;19924;-74
2023/05/14 14:21:28;;;;;;;;;;;21.70;99.90;;;;;;6188372;23;19920;-74
2023/05/14 14:23:54;;;;;;;;;;;21.80;99.90;;;;;;6189309;23;20340;-74
2023/05/14 14:26:20;;;;;;;;;;;21.60;99.90;;;;;;6185774;23;20336;-74
2023/05/14 14:28:45;;;;;;;;;;;21.60;99.90;;;;;;6186244;23;19920;-74
2023/05/14 14:31:11;;;;;;;;;;;21.40;99.90;;;;;;6159137;23;20325;-74
2023/05/14 14:33:37;;;;;;;;;;;21.40;99.90;;;;;;6158820;23;19935;-74
2023/05/14 14:36:03;;;;;;;;;;;21.20;99.90;;;;;;6185838;23;20340;-74
2023/05/14 14:38:28;;;;;;;;;;;21.20;99.90;;;;;;6186330;23;19920;-74
2023/05/14 14:40:54;;;;;;;;;;;21.30;99.90;;;;;;6184592;23;20280;-74
2023/05/14 14:43:19;;;;;;;;;;;21.30;99.90;;;;;;6159522;23;19917;-75
2023/05/14 14:45:45;;;;;;;;;;;21.40;99.90;;;;;;6186269;23;19920;-74
2023/05/14 14:48:30;;;;;;;;;;;21.30;99.90;;;;;;6181770;23;19987;-75
2023/05/14 14:50:56;;;;;;;;;;;21.40;99.90;;;;;;6183367;23;19975;-74
2023/05/14 14:53:22;;;;;;;;;;;21.30;99.90;;;;;;6183950;23;19920;-74
2023/05/14 14:55:50;;;;;;;;;;;21.30;99.90;;;;;;6182804;23;19920;-74
2023/05/14 14:58:17;;;;;;;;;;;20.90;99.90;;;;;;6182190;23;19966;-74
2023/05/14 15:00:42;;;;;;;;;;;20.80;99.90;;;;;;6183801;23;19935;-73
2023/05/14 15:03:09;;;;;;;;;;;20.70;99.90;;;;;;6182570;23;19924;-74
2023/05/14 15:05:34;;;;;;;;;;;20.60;99.90;;;;;;6159522;23;20287;-75
2023/05/14 15:08:00;;;;;;;;;;;20.70;99.90;;;;;;6158426;23;19920;-74
2023/05/14 15:10:29;;;;;;;;;;;20.50;99.90;;;;;;6158583;23;19967;-74
2023/05/14 15:13:00;;;;;;;;;;;20.40;99.90;;;;;;6185380;23;19920;-73
2023/05/14 15:15:25;;;;;;;;;;;20.30;99.90;;;;;;6185717;23;19920;-74
2023/05/14 15:17:51;;;;;;;;;;;20.20;99.90;;;;;;6184395;23;19927;-74
2023/05/14 15:20:16;;;;;;;;;;;20.30;99.90;;;;;;6154129;23;19925;-74
2023/05/14 15:22:42;;;;;;;;;;;20.40;99.90;;;;;;6155103;23;19920;-73
2023/05/14 15:25:08;;;;;;;;;;;20.30;99.90;;;;;;6153830;23;19924;-74
2023/05/14 15:27:34;;;;;;;;;;;20.20;99.90;;;;;;6156001;23;19921;-74
2023/05/14 15:29:59;;;;;;;;;;;20.20;99.90;;;;;;6154867;23;19924;-74
2023/05/14 15:32:27;;;;;;;;;;;20.30;99.90;;;;;;6155712;23;20222;-74
2023/05/14 15:34:53;;;;;;;;;;;20.20;99.90;;;;;;6155628;23;19921;-73
2023/05/14 15:37:18;;;;;;;;;;;20.30;99.90;;;;;;6153069;23;20321;-74
2023/05/14 15:39:44;;;;;;;;;;;20.30;99.90;;;;;;6156058;23;19928;-75
2023/05/14 15:42:09;;;;;;;;;;;20.00;99.90;;;;;;6155248;23;19916;-74
2023/05/14 15:44:35;;;;;;;;;;;20.10;99.90;;;;;;6153292;23;19999;-74
2023/05/14 15:47:01;;;;;;;;;;;19.90;99.90;;;;;;6153688;23;19932;-74
2023/05/14 15:49:26;;;;;;;;;;;19.80;99.90;;;;;;6152874;23;19924;-75
2023/05/14 15:51:54;;;;;;;;;;;19.60;99.90;;;;;;6154399;23;19927;-72
2023/05/14 15:54:20;;;;;;;;;;;19.40;99.90;;;;;;6155716;23;20325;-81
2023/05/14 15:56:46;;;;;;;;;;;19.00;99.90;;;;;;6156018;23;19925;-72
2023/05/14 15:59:13;;;;;;;;;;;19.00;99.90;;;;;;6154774;23;20296;-75
2023/05/14 16:01:38;;;;;;;;;;;18.60;99.90;;;;;;6155953;23;19916;-75
2023/05/14 16:04:04;;;;;;;;;;;18.60;99.90;;;;;;6153595;23;19921;-72
2023/05/14 16:06:31;;;;;;;;;;;18.50;99.90;;;;;;6155031;23;20249;-73
2023/05/14 16:08:56;;;;;;;;;;;18.60;99.90;;;;;;6153068;23;19916;-73
2023/05/14 16:11:22;;;;;;;;;;;18.30;99.90;;;;;;6153560;23;19920;-73
2023/05/14 16:13:50;;;;;;;;;;;18.10;99.90;;;;;;6154716;23;20388;-75
2023/05/14 16:16:16;;;;;;;;;;;18.10;99.90;;;;;;6153784;23;19920;-72
2023/05/14 16:18:42;;;;;;;;;;;18.10;99.90;;;;;;6153713;23;19995;-74
2023/05/14 16:21:07;;;;;;;;;;;18.10;99.90;;;;;;6178784;23;20434;-78
2023/05/14 16:23:33;;;;;;;;;;;18.10;99.90;;;;;;6185656;23;20214;-76
2023/05/14 16:25:58;;;;;;;;;;;17.90;99.90;;;;;;6185036;23;20046;-76
2023/05/14 16:28:24;;;;;;;;;;;17.70;99.90;;;;;;6160346;23;20256;-75
2023/05/14 16:30:52;;;;;;;;;;;17.50;99.90;;;;;;6187033;23;19920;-76
2023/05/14 16:33:18;;;;;;;;;;;17.20;99.90;;;;;;6156763;23;19928;-75
2023/05/14 16:35:44;;;;;;;;;;;17.10;99.90;;;;;;6186984;23;19927;-76
2023/05/14 16:38:10;;;;;;;;;;;16.90;99.90;;;;;;6159609;23;19974;-75
2023/05/14 16:40:38;;;;;;;;;;;16.90;99.90;;;;;;6185976;23;19920;-75
2023/05/14 16:43:04;;;;;;;;;;;16.80;99.90;;;;;;6186684;23;19956;-75
2023/05/14 16:45:31;;;;;;;;;;;16.60;99.90;;;;;;6160150;23;20295;-75
2023/05/14 16:47:57;;;;;;;;;;;16.50;99.90;;;;;;6184847;23;19934;-74
2023/05/14 16:50:22;;;;;;;;;;;16.40;99.90;;;;;;6159305;23;19920;-76
2023/05/14 16:52:48;;;;;;;;;;;16.50;99.90;;;;;;6160044;23;19920;-75
2023/05/14 16:55:13;;;;;;;;;;;16.60;99.90;;;;;;6159544;23;19920;-76
2023/05/14 16:57:42;;;;;;;;;;;16.40;99.90;;;;;;6160141;23;19920;-76
2023/05/14 17:00:08;;;;;;;;;;;16.40;99.90;;;;;;6156417;23;20392;-76
2023/05/14 17:02:33;;;;;;;;;;;16.30;99.90;;;;;;6159478;23;19920;-77
2023/05/14 17:04:59;;;;;;;;;;;16.20;99.90;;;;;;6159739;23;19920;-76
2023/05/14 17:07:24;;;;;;;;;;;16.00;99.90;;;;;;6158194;23;19920;-75
2023/05/14 17:09:50;;;;;;;;;;;15.80;99.90;;;;;;6155269;23;19927;-76
2023/05/14 17:12:18;;;;;;;;;;;15.80;99.90;;;;;;6183871;23;19928;-77
2023/05/14 17:14:46;;;;;;;;;;;15.70;99.90;;;;;;6182627;23;20257;-76
2023/05/14 17:17:12;;;;;;;;;;;15.60;99.90;;;;;;6185263;23;19921;-78
2023/05/14 17:19:37;;;;;;;;;;;15.60;99.90;;;;;;6160075;23;20002;-74
2023/05/14 17:22:04;;;;;;;;;;;15.40;99.90;;;;;;6159356;23;19920;-75
2023/05/14 17:24:30;;;;;;;;;;;15.40;99.90;;;;;;6185607;23;19926;-77